Bearsdale, Illinois
Current Conditions -  °F | °C
As of 1:54 PM on Friday 21 Nov 2014 (Local Time) from KDEC Reporting Station
Clear Clear  
Wind Chill: -2°   Ceiling: Unl
Heat Index:   Visibility: 10mi
Dew Point: -11°   Wind: 13mph
Humidity: 36%   Direction: 130°SE
Pressure: 30.37"   Gusts: NA
Location:  39.9062°N, 88.9645°W
Report Text: KDEC 211954Z 13011KT 10SM CLR 03/M11 A3037 RMK AO2 SLP291 T00281111
Loading
Personal Weather Stations






























Interactive Weather Map New forecast layout! Learn more

10-Day Weather Forecast

Advertisements
Track Severe Weather on mobile